Time;durP1;ratioP1;P1;durP2;ratioP2;P2;SDS_P1;SDS_P2;PMS_P1;PMS_P2;Temp;Humidity;BMP_temperature;BMP_pressure;BME280_temperature;BME280_humidity;BME280_pressure;Samples;Min_cycle;Max_cycle;Signal;HPM_P1;HPM_P2
2024/04/09 00:02:07;;;;;;;;;;;;;;;;;;5535439;25;20037;-61
2024/04/09 00:04:39;;;;;;;11.07;3.90;;;;;;;;;;5545222;25;19931;-62
2024/04/09 00:07:05;;;;;;;15.50;3.60;;;;;;;;;;5558586;25;20033;-63
2024/04/09 00:09:42;;;;;;;19.63;4.25;;;;;;;;;;5530201;25;20029;-63
2024/04/09 00:12:09;;;;;;;12.23;3.75;;;;;;;;;;5527944;25;20025;-63
2024/04/09 00:14:38;;;;;;;12.30;3.92;;;;;;;;;;5526825;25;20029;-63
2024/04/09 00:17:05;;;;;;;15.50;4.05;;;;;;;;;;5527739;25;20029;-63
2024/04/09 00:19:34;;;;;;;9.43;3.60;;;;;;;;;;5534177;25;20018;-63
2024/04/09 00:22:04;;;;;;;13.25;3.60;;;;;;;;;;5527333;25;20034;-63
2024/04/09 00:24:34;;;;;;;9.35;3.60;;;;;;;;;;5525208;25;20466;-62
2024/04/09 00:27:01;;;;;;;12.55;3.47;;;;;;;;;;5526347;25;20030;-63
2024/04/09 00:29:31;;;;;;;21.85;5.03;;;;;;;;;;5537595;25;20412;-63
2024/04/09 00:31:57;;;;;;;17.52;4.22;;;;;;;;;;5546861;25;20025;-63
2024/04/09 00:34:26;;;;;;;23.90;4.32;;;;;;;;;;5563582;25;20033;-63
2024/04/09 00:36:53;;;;;;;23.05;5.15;;;;;;;;;;5564600;25;20389;-63
2024/04/09 00:39:27;;;;;;;26.33;4.55;;;;;;;;;;5551224;25;20025;-63
2024/04/09 00:41:54;;;;;;;28.80;4.95;;;;;;;;;;5534030;25;20033;-63
2024/04/09 00:44:24;;;;;;;18.15;5.15;;;;;;;;;;5539851;25;20045;-64
2024/04/09 00:46:51;;;;;;;29.05;5.55;;;;;;;;;;5527329;25;20486;-63
2024/04/09 00:49:20;;;;;;;28.88;5.72;;;;;;;;;;5526395;25;20021;-64
2024/04/09 00:51:48;;;;;;;24.05;5.60;;;;;;;;;;5527407;25;20494;-63
2024/04/09 00:54:17;;;;;;;28.65;6.38;;;;;;;;;;5525790;25;20026;-63
2024/04/09 00:56:47;;;;;;;32.20;6.93;;;;;;;;;;5538429;25;20486;-63
2024/04/09 00:59:17;;;;;;;31.08;6.97;;;;;;;;;;5538468;25;20022;-64
2024/04/09 01:01:44;;;;;;;33.50;6.30;;;;;;;;;;5527820;25;20029;-63
2024/04/09 01:04:12;;;;;;;22.80;6.68;;;;;;;;;;5525932;25;20037;-63
2024/04/09 01:06:38;;;;;;;21.55;6.10;;;;;;;;;;5535746;25;20024;-63
2024/04/09 01:09:08;;;;;;;35.25;7.45;;;;;;;;;;5545762;25;20030;-63
2024/04/09 01:11:35;;;;;;;33.42;7.07;;;;;;;;;;5538724;25;20046;-63
2024/04/09 01:14:06;;;;;;;26.38;5.78;;;;;;;;;;5538377;25;20029;-62
2024/04/09 01:16:33;;;;;;;22.45;6.28;;;;;;;;;;5548095;25;20041;-63
2024/04/09 01:19:04;;;;;;;24.85;6.05;;;;;;;;;;5526453;25;20029;-62
2024/04/09 01:21:30;;;;;;;22.23;6.07;;;;;;;;;;5526676;25;20034;-63
2024/04/09 01:24:01;;;;;;;23.33;5.82;;;;;;;;;;5526041;25;20385;-63
2024/04/09 01:26:29;;;;;;;30.90;6.05;;;;;;;;;;5530501;25;20033;-63
2024/04/09 01:28:58;;;;;;;21.50;5.30;;;;;;;;;;5552266;25;20028;-62
2024/04/09 01:31:24;;;;;;;21.38;4.88;;;;;;;;;;5563894;25;20029;-62
2024/04/09 01:33:54;;;;;;;23.50;4.88;;;;;;;;;;5563091;25;20047;-62
2024/04/09 01:36:20;;;;;;;18.90;4.85;;;;;;;;;;5563580;25;20028;-63
2024/04/09 01:38:49;;;;;;;17.65;4.25;;;;;;;;;;5536991;25;20029;-62
2024/04/09 01:41:19;;;;;;;18.92;4.45;;;;;;;;;;5540441;25;20048;-63
2024/04/09 01:43:48;;;;;;;17.58;4.25;;;;;;;;;;5526373;25;20034;-64
2024/04/09 01:46:14;;;;;;;17.10;3.92;;;;;;;;;;5543623;25;20053;-61
2024/04/09 01:48:44;;;;;;;18.67;4.47;;;;;;;;;;5546803;25;20107;-62
2024/04/09 01:51:10;;;;;;;19.65;4.65;;;;;;;;;;5542556;25;20380;-62
2024/04/09 01:53:39;;;;;;;13.05;3.92;;;;;;;;;;5545902;25;20486;-63
2024/04/09 01:56:05;;;;;;;17.08;4.40;;;;;;;;;;5541534;25;20024;-62
2024/04/09 01:58:39;;;;;;;19.05;3.70;;;;;;;;;;5540351;25;20074;-62
2024/04/09 02:01:05;;;;;;;13.00;3.65;;;;;;;;;;5537464;25;20037;-62
2024/04/09 02:03:34;;;;;;;18.60;3.53;;;;;;;;;;5537873;25;20025;-62
2024/04/09 02:06:00;;;;;;;;;;;;;;;;;;5541004;25;20037;-63
2024/04/09 02:08:29;;;;;;;16.05;4.43;;;;;;;;;;5536153;25;19923;-63
2024/04/09 02:10:55;;;;;;;13.20;3.80;;;;;;;;;;5534479;25;20374;-62
2024/04/09 02:13:25;;;;;;;12.13;4.20;;;;;;;;;;5545299;25;20474;-62
2024/04/09 02:15:54;;;;;;;16.38;4.13;;;;;;;;;;5561761;25;20021;-63
2024/04/09 02:18:23;;;;;;;15.43;4.25;;;;;;;;;;5562613;25;20024;-62
2024/04/09 02:20:49;;;;;;;16.83;4.40;;;;;;;;;;5553735;25;20021;-63
2024/04/09 02:23:18;;;;;;;11.85;4.00;;;;;;;;;;5552024;25;20025;-62
2024/04/09 02:25:45;;;;;;;15.55;4.15;;;;;;;;;;5550244;25;20025;-62
2024/04/09 02:28:14;;;;;;;15.52;3.85;;;;;;;;;;5545008;25;20036;-62
2024/04/09 02:30:40;;;;;;;13.50;3.95;;;;;;;;;;5542322;25;20028;-62
2024/04/09 02:33:13;;;;;;;19.13;5.03;;;;;;;;;;5544343;25;20025;-62
2024/04/09 02:35:42;;;;;;;16.08;3.88;;;;;;;;;;5529173;25;20025;-62
2024/04/09 02:38:11;;;;;;;15.73;4.20;;;;;;;;;;5541143;25;20582;-63
2024/04/09 02:40:37;;;;;;;16.38;4.47;;;;;;;;;;5562585;25;20032;-63
2024/04/09 02:43:07;;;;;;;18.67;3.90;;;;;;;;;;5561771;25;20032;-64
2024/04/09 02:45:33;;;;;;;14.77;3.75;;;;;;;;;;5548431;25;20036;-63
2024/04/09 02:48:02;;;;;;;16.92;3.88;;;;;;;;;;5528348;25;20033;-62
2024/04/09 02:50:30;;;;;;;13.73;3.92;;;;;;;;;;5525122;25;20029;-64
2024/04/09 02:52:59;;;;;;;16.95;5.60;;;;;;;;;;5524108;25;20366;-62
2024/04/09 02:55:26;;;;;;;17.92;4.38;;;;;;;;;;5533093;25;20045;-63
2024/04/09 02:57:55;;;;;;;14.85;4.43;;;;;;;;;;5535513;25;20038;-62
2024/04/09 03:00:21;;;;;;;15.50;4.05;;;;;;;;;;5545308;25;20029;-62
2024/04/09 03:02:53;;;;;;;16.65;4.10;;;;;;;;;;5546509;25;20486;-62
2024/04/09 03:05:21;;;;;;;12.13;3.70;;;;;;;;;;5549123;25;20016;-62
2024/04/09 03:07:55;;;;;;;14.25;4.32;;;;;;;;;;5550589;25;20025;-63
2024/04/09 03:10:21;;;;;;;13.00;3.60;;;;;;;;;;5565825;25;20024;-62
2024/04/09 03:12:50;;;;;;;12.45;3.95;;;;;;;;;;5565910;25;20486;-62
2024/04/09 03:15:16;;;;;;;11.52;3.17;;;;;;;;;;5565989;25;20025;-63
2024/04/09 03:17:45;;;;;;;16.08;4.40;;;;;;;;;;5551260;25;20029;-62
2024/04/09 03:20:11;;;;;;;15.85;4.03;;;;;;;;;;5545502;25;20388;-62
2024/04/09 03:22:40;;;;;;;15.88;4.03;;;;;;;;;;5533686;25;20030;-63
2024/04/09 03:25:09;;;;;;;13.38;3.85;;;;;;;;;;5534827;25;20375;-62
2024/04/09 03:27:38;;;;;;;17.48;3.92;;;;;;;;;;5548229;25;20365;-63
2024/04/09 03:30:05;;;;;;;12.40;3.70;;;;;;;;;;5537396;25;20034;-62
2024/04/09 03:32:34;;;;;;;14.02;4.38;;;;;;;;;;5528130;26;20021;-62
2024/04/09 03:35:00;;;;;;;13.18;4.00;;;;;;;;;;5527690;25;20040;-62
2024/04/09 03:37:29;;;;;;;10.98;3.63;;;;;;;;;;5527688;25;20025;-63
2024/04/09 03:39:58;;;;;;;12.35;4.00;;;;;;;;;;5539592;25;20021;-63
2024/04/09 03:42:27;;;;;;;;;;;;;;;;;;5528917;25;20387;-63
2024/04/09 03:44:58;;;;;;;12.98;3.65;;;;;;;;;;5528134;25;20304;-63
2024/04/09 03:47:24;;;;;;;13.63;3.53;;;;;;;;;;5530154;25;20026;-62
2024/04/09 03:49:53;;;;;;;11.15;3.38;;;;;;;;;;5544062;25;20576;-62
2024/04/09 03:52:19;;;;;;;12.52;3.58;;;;;;;;;;5536882;25;20037;-63
2024/04/09 03:54:48;;;;;;;12.45;3.60;;;;;;;;;;5526802;25;20033;-63
2024/04/09 03:57:14;;;;;;;10.60;3.28;;;;;;;;;;5528102;25;20373;-62
2024/04/09 03:59:43;;;;;;;12.20;3.47;;;;;;;;;;5541796;25;20034;-63
2024/04/09 04:02:12;;;;;;;7.78;3.42;;;;;;;;;;5528028;25;20451;-63
2024/04/09 04:04:41;;;;;;;10.55;3.40;;;;;;;;;;5527714;25;19994;-63
2024/04/09 04:07:10;;;;;;;9.90;3.35;;;;;;;;;;5530258;25;20029;-63
2024/04/09 04:09:39;;;;;;;11.55;4.20;;;;;;;;;;5532428;25;20366;-62
2024/04/09 04:12:05;;;;;;;11.40;3.17;;;;;;;;;;5554541;25;20021;-63
2024/04/09 04:14:34;;;;;;;13.05;3.42;;;;;;;;;;5544989;25;20514;-62
2024/04/09 04:17:03;;;;;;;11.73;3.42;;;;;;;;;;5562491;25;20041;-62
2024/04/09 04:19:34;;;;;;;11.07;3.38;;;;;;;;;;5564765;25;20391;-63
2024/04/09 04:22:01;;;;;;;11.10;3.00;;;;;;;;;;5549621;25;20480;-62
2024/04/09 04:24:30;;;;;;;13.15;3.53;;;;;;;;;;5553878;25;20033;-63
2024/04/09 04:26:56;;;;;;;13.68;3.38;;;;;;;;;;5534726;25;20101;-63
2024/04/09 04:29:25;;;;;;;10.35;4.07;;;;;;;;;;5526749;25;20407;-63
2024/04/09 04:31:52;;;;;;;12.82;3.17;;;;;;;;;;5530565;25;20516;-62
2024/04/09 04:34:20;;;;;;;11.38;3.20;;;;;;;;;;5536016;25;20475;-63
2024/04/09 04:36:49;;;;;;;11.73;3.28;;;;;;;;;;5527794;25;20025;-63
2024/04/09 04:39:18;;;;;;;11.18;3.50;;;;;;;;;;5526895;25;20025;-64
2024/04/09 04:41:45;;;;;;;8.52;2.92;;;;;;;;;;5527033;25;20030;-66
2024/04/09 04:44:14;;;;;;;9.43;2.95;;;;;;;;;;5526864;25;20033;-65
2024/04/09 04:46:40;;;;;;;11.55;3.42;;;;;;;;;;5533271;25;20034;-62
2024/04/09 04:49:09;;;;;;;8.82;3.20;;;;;;;;;;5552205;25;20037;-63
2024/04/09 04:51:35;;;;;;;;;;;;;;;;;;5528115;25;20030;-62
2024/04/09 04:54:06;;;;;;;11.60;2.70;;;;;;;;;;5533222;25;19991;-62
2024/04/09 04:56:32;;;;;;;9.02;2.80;;;;;;;;;;5548485;25;20392;-61
2024/04/09 04:59:01;;;;;;;10.00;3.25;;;;;;;;;;5533049;25;20459;-62
2024/04/09 05:01:29;;;;;;;7.30;2.88;;;;;;;;;;5531026;25;20037;-62
2024/04/09 05:03:58;;;;;;;9.00;2.45;;;;;;;;;;5535925;25;20025;-62
2024/04/09 05:06:24;;;;;;;7.20;2.83;;;;;;;;;;5564047;25;20041;-62
2024/04/09 05:08:53;;;;;;;9.00;2.88;;;;;;;;;;5562995;25;20033;-62
2024/04/09 05:11:22;;;;;;;7.70;2.90;;;;;;;;;;5563512;25;20028;-62
2024/04/09 05:13:52;;;;;;;8.73;3.05;;;;;;;;;;5535955;25;20037;-63
2024/04/09 05:16:18;;;;;;;9.50;2.90;;;;;;;;;;5541870;25;20034;-63
2024/04/09 05:18:47;;;;;;;11.65;3.20;;;;;;;;;;5532071;25;20033;-62
2024/04/09 05:21:13;;;;;;;8.95;2.53;;;;;;;;;;5560976;25;20375;-62
2024/04/09 05:23:42;;;;;;;11.88;3.35;;;;;;;;;;5552694;25;20033;-61
2024/04/09 05:26:08;;;;;;;6.45;2.47;;;;;;;;;;5545176;25;20025;-63
2024/04/09 05:28:39;;;;;;;10.88;2.85;;;;;;;;;;5545410;25;20032;-63
2024/04/09 05:31:05;;;;;;;8.85;3.00;;;;;;;;;;5542142;25;20029;-63
2024/04/09 05:33:34;;;;;;;8.40;2.85;;;;;;;;;;5548161;25;20398;-63
2024/04/09 05:36:00;;;;;;;9.45;3.08;;;;;;;;;;5560726;25;20020;-63
2024/04/09 05:38:29;;;;;;;9.50;3.05;;;;;;;;;;5578705;25;20032;-65
2024/04/09 05:40:55;;;;;;;7.55;3.17;;;;;;;;;;5573454;25;20030;-63
2024/04/09 05:43:24;;;;;;;8.60;2.65;;;;;;;;;;5545951;25;20393;-62
2024/04/09 05:45:53;;;;;;;10.02;3.42;;;;;;;;;;5562656;25;20029;-62
2024/04/09 05:48:21;;;;;;;9.15;3.28;;;;;;;;;;5543223;25;20033;-62
2024/04/09 05:50:47;;;;;;;8.15;3.40;;;;;;;;;;5552175;25;20024;-63
2024/04/09 05:53:17;;;;;;;9.13;3.53;;;;;;;;;;5562078;25;20024;-62
2024/04/09 05:55:43;;;;;;;9.95;3.25;;;;;;;;;;5531401;25;20029;-63
2024/04/09 05:58:14;;;;;;;9.32;2.83;;;;;;;;;;5549043;25;20494;-62
2024/04/09 06:00:40;;;;;;;9.48;2.80;;;;;;;;;;5542930;25;20024;-62
2024/04/09 06:03:12;;;;;;;6.35;3.05;;;;;;;;;;5543869;25;20471;-63
2024/04/09 06:05:39;;;;;;;8.45;2.70;;;;;;;;;;5541129;25;20413;-64
2024/04/09 06:08:08;;;;;;;15.05;3.53;;;;;;;;;;5541370;25;20025;-63
2024/04/09 06:10:35;;;;;;;8.00;3.17;;;;;;;;;;5544735;25;20033;-63
2024/04/09 06:13:04;;;;;;;8.30;2.65;;;;;;;;;;5533578;25;20376;-63
2024/04/09 06:15:30;;;;;;;9.05;2.97;;;;;;;;;;5531864;25;20024;-64
2024/04/09 06:17:59;;;;;;;7.03;2.50;;;;;;;;;;5530364;25;20038;-63
2024/04/09 06:20:27;;;;;;;10.95;2.92;;;;;;;;;;5541357;25;20025;-64
2024/04/09 06:22:56;;;;;;;6.68;2.47;;;;;;;;;;5540044;25;20467;-64
2024/04/09 06:25:22;;;;;;;7.47;2.53;;;;;;;;;;5544401;25;20017;-64
2024/04/09 06:27:52;;;;;;;8.05;2.72;;;;;;;;;;5542257;25;20373;-64
2024/04/09 06:30:18;;;;;;;11.70;2.85;;;;;;;;;;5558175;25;20501;-66
2024/04/09 06:32:47;;;;;;;7.13;3.13;;;;;;;;;;5526228;25;20029;-66
2024/04/09 06:35:14;;;;;;;8.40;2.65;;;;;;;;;;5528829;25;20346;-66
2024/04/09 06:37:45;;;;;;;5.63;2.60;;;;;;;;;;5532277;25;20025;-56
2024/04/09 06:40:11;;;;;;;9.88;3.03;;;;;;;;;;5548406;25;20605;-56
2024/04/09 06:42:40;;;;;;;8.75;3.08;;;;;;;;;;5538395;25;20034;-55
2024/04/09 06:45:06;;;;;;;7.53;2.67;;;;;;;;;;5539067;25;20471;-55
2024/04/09 06:47:35;;;;;;;11.07;2.67;;;;;;;;;;5554780;25;20040;-56
2024/04/09 06:50:04;;;;;;;5.03;2.35;;;;;;;;;;5566072;25;20033;-55
2024/04/09 06:52:33;;;;;;;5.80;2.00;;;;;;;;;;5566021;25;20033;-55
2024/04/09 06:55:02;;;;;;;6.50;2.10;;;;;;;;;;5537297;25;20022;-55
2024/04/09 06:57:30;;;;;;;6.60;2.50;;;;;;;;;;5534129;25;20021;-53
2024/04/09 06:59:57;;;;;;;5.93;2.03;;;;;;;;;;5531291;25;20483;-54
2024/04/09 07:02:26;;;;;;;3.28;1.80;;;;;;;;;;5563222;25;20355;-54
2024/04/09 07:04:52;;;;;;;5.10;2.33;;;;;;;;;;5564953;25;20028;-55
2024/04/09 07:07:21;;;;;;;5.95;2.38;;;;;;;;;;5561673;25;20048;-55
2024/04/09 07:09:47;;;;;;;6.78;2.35;;;;;;;;;;5535637;25;20041;-54
2024/04/09 07:12:18;;;;;;;6.53;2.00;;;;;;;;;;5544345;25;20066;-54
2024/04/09 07:14:44;;;;;;;4.55;1.88;;;;;;;;;;5538678;25;20028;-54
2024/04/09 07:17:13;;;;;;;4.75;1.60;;;;;;;;;;5541837;25;20361;-55
2024/04/09 07:19:39;;;;;;;4.78;1.63;;;;;;;;;;5536749;25;20306;-54
2024/04/09 07:22:09;;;;;;;2.78;1.10;;;;;;;;;;5546088;25;20041;-56
2024/04/09 07:24:35;;;;;;;3.30;1.10;;;;;;;;;;5551109;25;20029;-55
2024/04/09 07:27:05;;;;;;;2.72;1.05;;;;;;;;;;5564979;25;20020;-53
2024/04/09 07:29:34;;;;;;;6.63;0.98;;;;;;;;;;5545444;25;20025;-57
2024/04/09 07:32:05;;;;;;;4.28;1.00;;;;;;;;;;5541451;25;20028;-54
2024/04/09 07:34:31;;;;;;;2.22;0.88;;;;;;;;;;5565314;25;20033;-56
2024/04/09 07:37:00;;;;;;;6.30;1.00;;;;;;;;;;5565010;25;20020;-54
2024/04/09 07:39:26;;;;;;;5.03;1.58;;;;;;;;;;5565593;25;20384;-54
2024/04/09 07:41:55;;;;;;;5.32;1.40;;;;;;;;;;5552867;25;20037;-55
2024/04/09 07:44:21;;;;;;;3.92;1.42;;;;;;;;;;5538802;25;20021;-55
2024/04/09 07:46:52;;;;;;;1.90;1.27;;;;;;;;;;5526858;25;20029;-55
2024/04/09 07:49:19;;;;;;;4.30;1.40;;;;;;;;;;5527936;25;20026;-55
2024/04/09 07:51:47;;;;;;;3.28;1.20;;;;;;;;;;5537199;25;20029;-54
2024/04/09 07:54:14;;;;;;;2.58;1.20;;;;;;;;;;5545432;25;20369;-55
2024/04/09 07:56:42;;;;;;;2.85;1.13;;;;;;;;;;5545511;25;20036;-53
2024/04/09 07:59:08;;;;;;;5.60;1.60;;;;;;;;;;5540894;25;20028;-55
2024/04/09 08:01:37;;;;;;;4.05;1.38;;;;;;;;;;5552264;25;20036;-54
2024/04/09 08:04:07;;;;;;;4.47;1.27;;;;;;;;;;5565180;25;20012;-55
2024/04/09 08:06:35;;;;;;;6.90;1.60;;;;;;;;;;5564187;25;20040;-55
2024/04/09 08:09:01;;;;;;;2.50;1.40;;;;;;;;;;5553298;25;20033;-54
2024/04/09 08:11:30;;;;;;;4.10;2.00;;;;;;;;;;5527037;25;20382;-55
2024/04/09 08:13:56;;;;;;;3.20;1.77;;;;;;;;;;5527174;25;20075;-55
2024/04/09 08:16:25;;;;;;;3.38;1.70;;;;;;;;;;5526836;25;20400;-54
2024/04/09 08:18:51;;;;;;;3.30;1.63;;;;;;;;;;5526847;25;20025;-55
2024/04/09 08:21:23;;;;;;;4.32;2.00;;;;;;;;;;5539273;25;20025;-53
2024/04/09 08:23:49;;;;;;;3.67;1.75;;;;;;;;;;5526624;25;20021;-55
2024/04/09 08:26:18;;;;;;;3.50;2.25;;;;;;;;;;5525973;25;20354;-54
2024/04/09 08:28:47;;;;;;;4.28;2.70;;;;;;;;;;5526749;25;20034;-54
2024/04/09 08:31:13;;;;;;;3.05;2.30;;;;;;;;;;5537031;25;20025;-58
2024/04/09 08:33:42;;;;;;;3.75;2.30;;;;;;;;;;5539363;25;20033;-57
2024/04/09 08:36:08;;;;;;;3.45;2.70;;;;;;;;;;5536987;25;20025;-55
2024/04/09 08:38:40;;;;;;;4.28;2.17;;;;;;;;;;5529340;25;20041;-55
2024/04/09 08:41:07;;;;;;;4.15;2.90;;;;;;;;;;5526146;25;20033;-55
2024/04/09 08:43:36;;;;;;;5.47;3.03;;;;;;;;;;5531383;25;20025;-55
2024/04/09 08:46:04;;;;;;;5.75;3.78;;;;;;;;;;5547711;25;20029;-64
2024/04/09 08:48:33;;;;;;;5.28;3.80;;;;;;;;;;5538875;25;20029;-65
2024/04/09 08:51:03;;;;;;;4.28;3.10;;;;;;;;;;5526520;25;20479;-65
2024/04/09 08:53:32;;;;;;;4.75;3.53;;;;;;;;;;5526689;25;20360;-64
2024/04/09 08:56:03;;;;;;;6.30;4.50;;;;;;;;;;5526535;25;20034;-64
2024/04/09 08:58:30;;;;;;;6.97;4.47;;;;;;;;;;5526735;25;20532;-64
2024/04/09 09:00:58;;;;;;;5.03;4.35;;;;;;;;;;5525822;25;20049;-63
2024/04/09 09:03:24;;;;;;;6.20;5.00;;;;;;;;;;5526515;25;20498;-65
2024/04/09 09:05:59;;;;;;;8.00;5.50;;;;;;;;;;5536038;25;20481;-63
2024/04/09 09:08:26;;;;;;;6.85;5.60;;;;;;;;;;5534073;25;20034;-63
2024/04/09 09:10:58;;;;;;;7.90;4.90;;;;;;;;;;5526178;25;20496;-63
2024/04/09 09:13:26;;;;;;;5.70;4.45;;;;;;;;;;5526267;25;20029;-63
2024/04/09 09:15:58;;;;;;;5.43;4.33;;;;;;;;;;5542081;25;20029;-63
2024/04/09 09:18:25;;;;;;;5.38;3.90;;;;;;;;;;5544468;25;20386;-63
2024/04/09 09:21:00;;;;;;;4.70;3.20;;;;;;;;;;5548799;25;20024;-63
2024/04/09 09:23:26;;;;;;;5.97;3.45;;;;;;;;;;5528360;25;20030;-62
2024/04/09 09:25:55;;;;;;;5.15;2.80;;;;;;;;;;5540661;25;20032;-63
2024/04/09 09:28:22;;;;;;;5.13;3.03;;;;;;;;;;5536426;25;20029;-64
2024/04/09 09:30:56;;;;;;;4.68;2.10;;;;;;;;;;5557742;25;20017;-64
2024/04/09 09:33:26;;;;;;;4.40;1.85;;;;;;;;;;5562688;25;20033;-64
2024/04/09 09:35:55;;;;;;;4.78;2.10;;;;;;;;;;5526364;25;20463;-63
2024/04/09 09:38:22;;;;;;;4.07;1.88;;;;;;;;;;5526479;25;20029;-65
2024/04/09 09:40:52;;;;;;;2.95;1.70;;;;;;;;;;5525214;25;20030;-63
2024/04/09 09:43:19;;;;;;;3.15;1.77;;;;;;;;;;5525394;25;20025;-64
2024/04/09 09:45:48;;;;;;;5.03;1.50;;;;;;;;;;5548649;25;20028;-63
2024/04/09 09:48:18;;;;;;;3.42;1.50;;;;;;;;;;5563280;25;20024;-63
2024/04/09 09:50:47;;;;;;;4.45;1.50;;;;;;;;;;5562171;25;20117;-63
2024/04/09 09:53:13;;;;;;;4.60;1.17;;;;;;;;;;5563572;25;20487;-63
2024/04/09 09:55:43;;;;;;;3.65;1.13;;;;;;;;;;5543610;25;20045;-63
2024/04/09 09:58:11;;;;;;;4.05;1.20;;;;;;;;;;5535476;25;20368;-62
2024/04/09 10:00:41;;;;;;;3.80;1.02;;;;;;;;;;5535373;25;20032;-63
2024/04/09 10:03:07;;;;;;;4.05;1.25;;;;;;;;;;5545799;25;20363;-62
2024/04/09 10:05:40;;;;;;;6.32;1.23;;;;;;;;;;5542565;25;20098;-63
2024/04/09 10:08:19;;;;;;;7.07;1.73;;;;;;;;;;5535605;25;20025;-62
2024/04/09 10:10:50;;;;;;;6.23;1.50;;;;;;;;;;5524691;25;20486;-62
2024/04/09 10:13:17;;;;;;;14.05;2.40;;;;;;;;;;5525017;25;20495;-63
2024/04/09 10:15:47;;;;;;;4.22;1.63;;;;;;;;;;5524545;25;20029;-62
2024/04/09 10:18:27;;;;;;;17.73;2.53;;;;;;;;;;5527666;25;20100;-60
2024/04/09 10:20:58;;;;;;;3.97;1.83;;;;;;;;;;5529289;25;20025;-63
2024/04/09 10:23:24;;;;;;;3.67;1.10;;;;;;;;;;5551775;25;20029;-62
2024/04/09 10:25:53;;;;;;;3.45;1.10;;;;;;;;;;5524198;25;20033;-64
2024/04/09 10:28:27;;;;;;;4.53;1.30;;;;;;;;;;5535469;25;20033;-62
2024/04/09 10:30:56;;;;;;;2.35;1.27;;;;;;;;;;5541503;25;20025;-62
2024/04/09 10:33:26;;;;;;;3.05;1.30;;;;;;;;;;5536494;25;20372;-62
2024/04/09 10:35:58;;;;;;;5.93;1.70;;;;;;;;;;5545870;25;20037;-62
2024/04/09 10:38:24;;;;;;;4.22;1.80;;;;;;;;;;5550530;25;20020;-62
2024/04/09 10:40:55;;;;;;;4.55;1.67;;;;;;;;;;5561325;25;20521;-63
2024/04/09 10:43:21;;;;;;;5.63;1.88;;;;;;;;;;5562362;25;20377;-63
2024/04/09 10:45:50;;;;;;;6.63;1.85;;;;;;;;;;5551732;25;20033;-64
2024/04/09 10:48:16;;;;;;;5.32;1.75;;;;;;;;;;5556214;25;20044;-64
2024/04/09 10:50:45;;;;;;;3.53;1.20;;;;;;;;;;5561560;25;20028;-65
2024/04/09 10:53:15;;;;;;;5.05;1.52;;;;;;;;;;5545313;25;20021;-62
2024/04/09 10:55:43;;;;;;;2.13;1.20;;;;;;;;;;5543721;25;20049;-62
2024/04/09 10:58:13;;;;;;;3.45;1.30;;;;;;;;;;5538355;25;20025;-62
2024/04/09 11:00:41;;;;;;;;;;;;;;;;;;5524596;25;20033;-62
2024/04/09 11:03:08;;;;;;;2.15;0.95;;;;;;;;;;5528729;25;19955;-62
2024/04/09 11:05:38;;;;;;;3.22;1.00;;;;;;;;;;5551848;25;20041;-62
2024/04/09 11:08:04;;;;;;;3.17;1.58;;;;;;;;;;5547778;25;20025;-62
2024/04/09 11:10:36;;;;;;;4.28;1.08;;;;;;;;;;5540212;25;20041;-62
2024/04/09 11:13:02;;;;;;;3.88;0.90;;;;;;;;;;5524188;25;20387;-62
2024/04/09 11:15:31;;;;;;;2.67;0.90;;;;;;;;;;5523589;25;20393;-62
2024/04/09 11:18:06;;;;;;;3.20;1.03;;;;;;;;;;5525801;25;20382;-62
2024/04/09 11:20:36;;;;;;;2.20;0.80;;;;;;;;;;5538987;25;20438;-62
2024/04/09 11:23:02;;;;;;;;;;;;;;;;;;5532096;25;20498;-62
2024/04/09 11:25:30;;;;;;;2.67;0.95;;;;;;;;;;5527576;25;19951;-62
2024/04/09 11:28:03;;;;;;;2.37;1.00;;;;;;;;;;5527429;25;20041;-62
2024/04/09 11:30:33;;;;;;;1.67;0.80;;;;;;;;;;5532085;25;20028;-62
2024/04/09 11:32:58;;;;;;;;;;;;;;;;;;5538079;25;20044;-62
2024/04/09 11:35:28;;;;;;;4.75;0.73;;;;;;;;;;5535370;25;19923;-63
2024/04/09 11:37:55;;;;;;;;;;;;;;;;;;5528555;25;20046;-63
2024/04/09 11:40:24;;;;;;;1.65;0.80;;;;;;;;;;5527601;25;19951;-61
2024/04/09 11:42:50;;;;;;;3.42;1.00;;;;;;;;;;5557023;25;20391;-62
2024/04/09 11:45:25;;;;;;;2.75;0.90;;;;;;;;;;5540920;25;20026;-63
2024/04/09 11:47:51;;;;;;;2.90;0.93;;;;;;;;;;5538777;25;20033;-63
2024/04/09 11:50:20;;;;;;;3.30;0.90;;;;;;;;;;5538047;25;20057;-63
2024/04/09 11:52:46;;;;;;;2.67;0.82;;;;;;;;;;5527248;25;20038;-64
2024/04/09 11:55:15;;;;;;;2.30;0.90;;;;;;;;;;5530767;25;20042;-63
2024/04/09 11:57:41;;;;;;;3.83;1.42;;;;;;;;;;5547880;25;20361;-64
2024/04/09 12:00:12;;;;;;;2.78;1.20;;;;;;;;;;5533361;25;20037;-63
2024/04/09 12:02:41;;;;;;;3.28;1.05;;;;;;;;;;5526956;25;20392;-64
2024/04/09 12:05:10;;;;;;;3.33;1.13;;;;;;;;;;5531794;25;20025;-64
2024/04/09 12:07:37;;;;;;;2.25;1.10;;;;;;;;;;5544012;25;20037;-64
2024/04/09 12:10:06;;;;;;;3.70;1.27;;;;;;;;;;5527150;25;20418;-65
2024/04/09 12:12:33;;;;;;;6.93;1.10;;;;;;;;;;5527338;25;20371;-65
2024/04/09 12:15:03;;;;;;;3.00;1.20;;;;;;;;;;5526296;25;20506;-65
2024/04/09 12:17:29;;;;;;;4.45;1.25;;;;;;;;;;5545308;25;20024;-64
2024/04/09 12:20:01;;;;;;;2.42;1.00;;;;;;;;;;5527452;25;20025;-63
2024/04/09 12:22:28;;;;;;;2.90;1.25;;;;;;;;;;5553158;25;20474;-64
2024/04/09 12:24:56;;;;;;;2.95;0.98;;;;;;;;;;5563740;25;20517;-63
2024/04/09 12:27:23;;;;;;;4.60;1.10;;;;;;;;;;5564112;25;20038;-63
2024/04/09 12:29:52;;;;;;;3.45;0.93;;;;;;;;;;5539031;25;20025;-62
2024/04/09 12:32:18;;;;;;;2.80;1.27;;;;;;;;;;5534675;25;20033;-62
2024/04/09 12:34:47;;;;;;;2.45;0.90;;;;;;;;;;5536007;25;20034;-63
2024/04/09 12:37:16;;;;;;;3.58;1.20;;;;;;;;;;5549086;25;20025;-62
2024/04/09 12:39:45;;;;;;;3.60;1.25;;;;;;;;;;5563057;25;20529;-63
2024/04/09 12:42:11;;;;;;;2.55;1.00;;;;;;;;;;5564163;25;20024;-62
2024/04/09 12:44:40;;;;;;;8.02;1.20;;;;;;;;;;5563063;25;20388;-63
2024/04/09 12:47:06;;;;;;;5.03;1.30;;;;;;;;;;5548847;25;20022;-62
2024/04/09 12:49:36;;;;;;;4.20;1.15;;;;;;;;;;5542682;25;20052;-62
2024/04/09 12:52:02;;;;;;;3.92;1.30;;;;;;;;;;5547092;25;20029;-64
2024/04/09 12:54:34;;;;;;;4.30;1.15;;;;;;;;;;5562592;25;20033;-64
2024/04/09 12:57:01;;;;;;;3.05;1.20;;;;;;;;;;5563984;25;20525;-62
2024/04/09 12:59:34;;;;;;;4.13;0.95;;;;;;;;;;5556077;25;20381;-63
2024/04/09 13:02:01;;;;;;;3.15;1.20;;;;;;;;;;5527546;25;20029;-62
2024/04/09 13:04:31;;;;;;;4.97;1.20;;;;;;;;;;5525122;25;20029;-62
2024/04/09 13:06:57;;;;;;;2.78;0.90;;;;;;;;;;5526354;25;20025;-62
2024/04/09 13:09:26;;;;;;;2.35;1.02;;;;;;;;;;5525527;25;20029;-63
2024/04/09 13:11:55;;;;;;;2.28;0.77;;;;;;;;;;5534052;25;20021;-61
2024/04/09 13:14:23;;;;;;;2.88;1.00;;;;;;;;;;5539021;25;20029;-62
2024/04/09 13:16:50;;;;;;;3.63;1.08;;;;;;;;;;5526365;25;20026;-62
2024/04/09 13:19:18;;;;;;;4.10;1.27;;;;;;;;;;5525869;25;20025;-62
2024/04/09 13:21:45;;;;;;;4.32;1.17;;;;;;;;;;5535770;25;20021;-62
2024/04/09 13:24:13;;;;;;;3.08;1.08;;;;;;;;;;5549195;25;20040;-62
2024/04/09 13:26:40;;;;;;;3.90;1.17;;;;;;;;;;5539974;25;20028;-62
2024/04/09 13:29:11;;;;;;;4.93;1.52;;;;;;;;;;5535699;25;20497;-63
2024/04/09 13:31:37;;;;;;;4.07;1.10;;;;;;;;;;5550304;25;20363;-62
2024/04/09 13:34:06;;;;;;;2.72;1.00;;;;;;;;;;5551987;25;20761;-62
2024/04/09 13:36:32;;;;;;;3.83;1.00;;;;;;;;;;5536910;25;20021;-62
2024/04/09 13:39:01;;;;;;;10.55;1.73;;;;;;;;;;5543840;25;20028;-61
2024/04/09 13:41:27;;;;;;;2.95;1.13;;;;;;;;;;5535886;25;20025;-63
2024/04/09 13:43:56;;;;;;;3.35;1.05;;;;;;;;;;5524588;25;20029;-62
2024/04/09 13:46:25;;;;;;;4.43;1.30;;;;;;;;;;5525641;25;20410;-63
2024/04/09 13:48:54;;;;;;;4.40;1.25;;;;;;;;;;5524446;25;20038;-63
2024/04/09 13:51:21;;;;;;;4.70;1.20;;;;;;;;;;5530328;25;20030;-62
2024/04/09 13:53:49;;;;;;;3.88;1.00;;;;;;;;;;5547737;25;20037;-62
2024/04/09 13:56:16;;;;;;;4.63;1.00;;;;;;;;;;5538587;25;20025;-64
2024/04/09 13:58:44;;;;;;;3.30;1.20;;;;;;;;;;5542975;25;20033;-63
2024/04/09 14:01:10;;;;;;;2.97;1.13;;;;;;;;;;5542490;25;20024;-62
2024/04/09 14:03:42;;;;;;;4.70;1.10;;;;;;;;;;5538490;25;20029;-62
2024/04/09 14:06:08;;;;;;;3.53;1.00;;;;;;;;;;5548601;25;20033;-62
2024/04/09 14:08:38;;;;;;;4.07;0.90;;;;;;;;;;5542635;25;20053;-63
2024/04/09 14:11:04;;;;;;;3.80;1.15;;;;;;;;;;5524829;25;20030;-62
2024/04/09 14:13:33;;;;;;;2.53;1.00;;;;;;;;;;5523709;25;20029;-62
2024/04/09 14:15:59;;;;;;;4.20;1.25;;;;;;;;;;5541677;25;20025;-62
2024/04/09 14:18:31;;;;;;;4.80;1.35;;;;;;;;;;5539901;25;20490;-62
2024/04/09 14:21:02;;;;;;;5.47;1.33;;;;;;;;;;5536651;25;20041;-62
2024/04/09 14:23:34;;;;;;;2.95;1.05;;;;;;;;;;5544601;25;20024;-62
2024/04/09 14:26:00;;;;;;;4.78;1.02;;;;;;;;;;5558320;25;20021;-61
2024/04/09 14:28:29;;;;;;;2.97;0.90;;;;;;;;;;5535685;25;20025;-62
2024/04/09 14:30:56;;;;;;;3.42;1.45;;;;;;;;;;5533016;25;20029;-61
2024/04/09 14:33:25;;;;;;;4.43;1.15;;;;;;;;;;5546955;25;20028;-61
2024/04/09 14:35:51;;;;;;;3.90;0.90;;;;;;;;;;5540822;25;20049;-62
2024/04/09 14:38:22;;;;;;;3.90;1.15;;;;;;;;;;5553077;25;20028;-61
2024/04/09 14:40:49;;;;;;;4.72;1.15;;;;;;;;;;5562152;25;20033;-61
2024/04/09 14:43:18;;;;;;;2.92;1.17;;;;;;;;;;5537574;25;20026;-61
2024/04/09 14:45:44;;;;;;;5.82;1.35;;;;;;;;;;5524425;25;20025;-61
2024/04/09 14:48:13;;;;;;;6.80;1.30;;;;;;;;;;5524219;25;20373;-63